Time;durP1;ratioP1;P1;durP2;ratioP2;P2;SDS_P1;SDS_P2;PMS_P1;PMS_P2;Temp;Humidity;BMP_temperature;BMP_pressure;BME280_temperature;BME280_humidity;BME280_pressure;Samples;Min_cycle;Max_cycle;Signal;HPM_P1;HPM_P2
2022/12/21 00:02:23;;;;;;;23.75;15.38;;;;;;;9.33;100.00;100963.09;4931349;29;20501;-66
2022/12/21 00:04:50;;;;;;;23.15;15.15;;;;;;;9.32;100.00;100961.34;4933556;29;20123;-67
2022/12/21 00:07:17;;;;;;;23.55;15.43;;;;;;;9.29;100.00;100961.44;4934095;28;20044;-66
2022/12/21 00:09:44;;;;;;;24.42;15.25;;;;;;;9.29;100.00;100958.81;4931768;29;20104;-66
2022/12/21 00:12:11;;;;;;;24.00;15.35;;;;;;;9.29;100.00;100966.72;4933056;28;20052;-66
2022/12/21 00:14:41;;;;;;;26.42;16.05;;;;;;;9.32;100.00;100971.03;4946681;28;20433;-65
2022/12/21 00:17:08;;;;;;;24.15;14.98;;;;;;;9.30;100.00;100962.28;4937001;28;20159;-66
2022/12/21 00:19:35;;;;;;;26.90;16.00;;;;;;;9.31;100.00;100969.28;4932022;29;20055;-65
2022/12/21 00:22:02;;;;;;;24.55;15.70;;;;;;;9.31;100.00;100969.28;4932327;29;20052;-66
2022/12/21 00:24:30;;;;;;;27.98;16.05;;;;;;;9.31;100.00;100969.28;4931447;29;20047;-66
2022/12/21 00:26:57;;;;;;;29.58;16.40;;;;;;;9.30;100.00;100963.19;4921611;29;20494;-66
2022/12/21 00:29:25;;;;;;;31.70;17.05;;;;;;;9.29;100.00;100964.06;4931320;28;20513;-65
2022/12/21 00:31:53;;;;;;;33.33;17.73;;;;;;;9.28;100.00;100961.47;4931078;28;20055;-66
2022/12/21 00:34:21;;;;;;;30.95;17.25;;;;;;;9.26;100.00;100965.91;4931458;28;20059;-66
2022/12/21 00:36:52;;;;;;;32.58;16.73;;;;;;;9.25;100.00;100957.13;4931376;28;20063;-66
2022/12/21 00:39:19;;;;;;;35.75;17.92;;;;;;;9.25;100.00;100962.41;4930235;29;20040;-66
2022/12/21 00:41:49;;;;;;;31.83;17.65;;;;;;;9.25;100.00;100961.56;4931709;29;20036;-66
2022/12/21 00:44:16;;;;;;;34.70;17.52;;;;;;;9.24;100.00;100965.94;4930315;28;20040;-67
2022/12/21 00:46:45;;;;;;;32.15;16.90;;;;;;;9.24;100.00;100959.81;4930697;29;20040;-67
2022/12/21 00:49:12;;;;;;;36.92;18.33;;;;;;;9.23;100.00;100958.94;4930296;29;20044;-66
2022/12/21 00:51:39;;;;;;;31.40;17.48;;;;;;;9.22;100.00;100966.88;4931825;29;20044;-67
2022/12/21 00:54:06;;;;;;;34.35;18.38;;;;;;;9.21;100.00;100968.63;4929744;28;20048;-66
2022/12/21 00:56:34;;;;;;;39.35;19.35;;;;;;;9.21;100.00;100965.13;4943079;28;20040;-66
2022/12/21 00:59:02;;;;;;;40.85;19.15;;;;;;;9.24;100.00;100972.97;4929616;28;20088;-66
2022/12/21 01:01:33;;;;;;;37.03;18.42;;;;;;;9.22;100.00;100974.75;4938938;28;20055;-66
2022/12/21 01:04:01;;;;;;;35.13;18.65;;;;;;;9.23;100.00;100985.25;4936801;28;20055;-66
2022/12/21 01:06:34;;;;;;;37.63;18.67;;;;;;;9.23;100.00;100987.88;4931881;29;20549;-65
2022/12/21 01:09:07;;;;;;;36.78;19.00;;;;;;;9.24;100.00;100986.97;4925376;29;22148;-65
2022/12/21 01:11:36;;;;;;;41.17;20.55;;;;;;;9.24;100.00;100992.22;4909962;29;20100;-67
2022/12/21 01:14:03;;;;;;;41.10;19.13;;;;;;;9.24;100.00;100994.88;4931119;28;20063;-67
2022/12/21 01:16:33;;;;;;;39.58;19.70;;;;;;;9.25;100.00;101003.63;4928735;28;20060;-68
2022/12/21 01:19:03;;;;;;;40.22;20.23;;;;;;;9.25;100.00;101001.84;4928990;29;20123;-68
2022/12/21 01:21:31;;;;;;;39.92;20.27;;;;;;;9.25;100.00;101006.28;4918706;29;20048;-68
2022/12/21 01:24:00;;;;;;;39.70;19.73;;;;;;;9.20;100.00;100998.47;4924248;29;20101;-68
2022/12/21 01:26:28;;;;;;;35.03;19.52;;;;;;;9.19;100.00;100999.38;4932547;29;20050;-68
2022/12/21 01:28:56;;;;;;;39.10;19.42;;;;;;;9.18;100.00;101000.28;4931187;29;20052;-68
2022/12/21 01:31:24;;;;;;;36.05;18.98;;;;;;;9.18;100.00;100995.00;4915359;28;20064;-68
2022/12/21 01:33:52;;;;;;;40.70;20.02;;;;;;;9.14;100.00;100988.97;4932046;29;20140;-69
2022/12/21 01:36:20;;;;;;;39.92;19.15;;;;;;;9.11;100.00;101004.78;4928663;29;20054;-69
2022/12/21 01:38:47;;;;;;;37.30;19.42;;;;;;;9.09;100.00;101017.09;4929039;28;20048;-66
2022/12/21 01:41:19;;;;;;;39.42;19.13;;;;;;;9.09;100.00;101022.38;4928536;28;20048;-67
2022/12/21 01:43:55;;;;;;;36.60;19.48;;;;;;;9.09;100.00;101016.25;4931660;28;20040;-66
2022/12/21 01:46:47;;;;;;;41.13;20.77;;;;;;;9.07;100.00;101004.91;4941695;28;20586;-68
2022/12/21 01:49:25;;;;;;;49.42;21.95;;;;;;;9.06;100.00;101005.78;4929771;28;20838;-67
2022/12/21 01:52:02;;;;;;;44.40;22.52;;;;;;;9.05;100.00;101001.44;4913661;28;20052;-67
2022/12/21 01:54:41;;;;;;;44.42;20.75;;;;;;;9.03;100.00;100988.31;4930057;29;20422;-67
2022/12/21 01:57:13;;;;;;;44.22;20.95;;;;;;;8.98;100.00;100998.94;4926899;29;20044;-68
2022/12/21 01:59:47;;;;;;;44.25;21.17;;;;;;;8.96;100.00;101000.72;4932166;28;20139;-67
2022/12/21 02:02:23;;;;;;;48.47;21.95;;;;;;;8.96;100.00;101013.88;4934800;29;20757;-67
2022/12/21 02:04:53;;;;;;;45.08;22.20;;;;;;;8.93;100.00;100995.53;4934182;29;20048;-67
2022/12/21 02:07:22;;;;;;;45.20;21.20;;;;;;;8.95;100.00;101001.63;4932307;28;20120;-66
2022/12/21 02:09:50;;;;;;;45.13;22.05;;;;;;;8.96;100.00;101008.63;4934246;28;20055;-66
2022/12/21 02:12:18;;;;;;;48.55;22.60;;;;;;;8.96;100.00;101006.00;4931825;28;20051;-66
2022/12/21 02:14:48;;;;;;;47.60;22.02;;;;;;;8.97;100.00;101002.47;4934887;28;20056;-66
2022/12/21 02:17:28;;;;;;;48.58;21.52;;;;;;;8.96;100.00;100995.47;4932890;29;20052;-66
2022/12/21 02:20:13;;;;;;;47.58;21.85;;;;;;;8.97;100.00;101002.47;4931703;29;20736;-67
2022/12/21 02:23:08;;;;;;;53.47;23.20;;;;;;;8.96;100.00;101000.72;4932221;29;20057;-66
2022/12/21 02:26:06;;;;;;;52.08;24.55;;;;;;;8.94;100.00;100992.00;4934974;28;20054;-66
2022/12/21 02:29:14;;;;;;;49.83;23.13;;;;;;;8.92;100.00;100988.53;4933297;28;20063;-66
2022/12/21 02:32:09;;;;;;;47.00;23.17;;;;;;;8.90;100.00;101000.88;4934828;29;20478;-66
2022/12/21 02:35:04;;;;;;;49.67;24.02;;;;;;;8.89;100.00;101000.88;4929654;28;20051;-65
2022/12/21 02:38:20;;;;;;;51.78;23.25;;;;;;;8.86;100.00;100994.78;4943388;28;20048;-66
2022/12/21 02:41:28;;;;;;;45.10;22.17;;;;;;;8.85;100.00;100986.94;4917520;28;20123;-66
2022/12/21 02:44:13;;;;;;;42.35;20.40;;;;;;;8.83;100.00;100975.59;4931295;28;20047;-66
2022/12/21 02:47:02;;;;;;;43.38;21.77;;;;;;;8.80;100.00;100968.63;4931215;29;20056;-66
2022/12/21 02:50:13;;;;;;;55.65;22.90;;;;;;;8.77;100.00;100973.09;4946713;28;20076;-65
2022/12/21 02:52:57;;;;;;;48.63;22.55;;;;;;;8.76;100.00;100971.34;4925686;29;20066;-67
2022/12/21 02:55:26;;;;;;;54.00;23.00;;;;;;;8.70;100.00;100974.97;4918970;29;20055;-67
2022/12/21 02:58:21;;;;;;;44.40;21.85;;;;;;;8.70;100.00;100975.81;4943301;28;20036;-67
2022/12/21 03:00:51;;;;;;;46.00;22.60;;;;;;;8.68;100.00;100985.53;4933143;29;20131;-67
2022/12/21 03:03:57;;;;;;;52.17;23.35;;;;;;;8.69;100.00;100978.50;4946850;28;20069;-67
2022/12/21 03:06:45;;;;;;;47.70;23.13;;;;;;;8.68;100.00;100977.66;4937774;28;20566;-67
2022/12/21 03:10:09;;;;;;;57.80;23.95;;;;;;;8.68;100.00;100976.75;4928864;29;20052;-67
2022/12/21 03:13:04;;;;;;;62.03;24.40;;;;;;;8.65;100.00;100980.31;4929091;28;20033;-67
2022/12/21 03:16:02;;;;;;;47.83;23.40;;;;;;;8.64;100.00;100980.38;4938087;28;20051;-67
2022/12/21 03:19:06;;;;;;;47.15;23.33;;;;;;;8.66;100.00;100979.44;4932034;29;20044;-67
2022/12/21 03:21:43;;;;;;;64.78;25.35;;;;;;;8.63;100.00;100974.22;4932601;29;20133;-67
2022/12/21 03:24:34;;;;;;;58.50;24.63;;;;;;;8.65;100.00;100972.44;4930417;28;20080;-67
2022/12/21 03:27:11;;;;;;;60.20;25.92;;;;;;;8.63;100.00;100976.84;4932707;28;20127;-67
2022/12/21 03:29:50;;;;;;;54.58;24.75;;;;;;;8.60;100.00;100962.91;4933994;29;20082;-67
2022/12/21 03:32:32;;;;;;;54.05;24.88;;;;;;;8.61;100.00;100967.28;4927100;28;20088;-67
2022/12/21 03:35:05;;;;;;;44.65;23.02;;;;;;;8.61;100.00;100969.91;4934020;29;20040;-67
2022/12/21 03:37:39;;;;;;;41.30;20.42;;;;;;;8.60;100.00;100955.88;4931026;29;20048;-67
2022/12/21 03:40:23;;;;;;;40.75;21.05;;;;;;;8.61;100.00;100962.03;4933869;29;20041;-67
2022/12/21 03:43:09;;;;;;;45.70;21.45;;;;;;;8.61;100.00;100954.16;4932693;29;20050;-67
2022/12/21 03:45:47;;;;;;;54.35;23.15;;;;;;;8.59;100.00;100948.03;4933086;29;20051;-67
2022/12/21 03:48:27;;;;;;;43.58;21.38;;;;;;;8.59;100.00;100948.94;4925371;28;20461;-67
2022/12/21 03:51:03;;;;;;;36.78;19.33;;;;;;;8.58;100.00;100939.31;4923186;28;20056;-67
2022/12/21 03:53:34;;;;;;;33.40;16.92;;;;;;;8.55;100.00;100944.63;4932278;28;20151;-67
2022/12/21 03:56:07;;;;;;;30.67;16.10;;;;;;;8.54;100.00;100953.41;4934224;28;20507;-67
2022/12/21 03:58:36;;;;;;;29.73;14.20;;;;;;;8.53;100.00;100949.03;4932834;29;20040;-67
2022/12/21 04:01:36;;;;;;;24.52;13.40;;;;;;;8.52;100.00;100947.28;4933493;29;20040;-67
2022/12/21 04:04:33;;;;;;;26.67;13.90;;;;;;;8.52;100.00;100949.94;4931151;29;20044;-67
2022/12/21 04:07:06;;;;;;;26.10;12.50;;;;;;;8.49;100.00;100942.97;4932997;28;20075;-68
2022/12/21 04:09:36;;;;;;;26.45;12.20;;;;;;;8.48;100.00;100949.13;4925859;29;20506;-67
2022/12/21 04:15:12;;;;;;;26.48;13.65;;;;;;;8.45;100.00;100941.25;4873303;29;20057;-66
2022/12/21 04:17:42;;;;;;;23.67;12.10;;;;;;;8.40;100.00;100936.09;4913896;29;20075;-67
2022/12/21 04:20:18;;;;;;;22.00;12.15;;;;;;;8.40;100.00;100928.22;4913522;29;20124;-66
2022/12/21 04:28:29;;;;;;;25.50;12.38;;;;;;;8.35;100.00;100945.84;4930211;29;20434;-67
2022/12/21 04:31:16;;;;;;;28.60;12.10;;;;;;;8.34;100.00;100945.88;4895759;29;20042;-64
2022/12/21 04:33:44;;;;;;;23.75;12.00;;;;;;;8.33;100.00;100937.13;4910905;29;20056;-64
2022/12/21 04:38:57;;;;;;;24.45;12.07;;;;;;;8.30;100.00;100941.56;4920940;29;20486;-67
2022/12/21 04:41:24;;;;;;;25.30;13.27;;;;;;;8.29;100.00;100945.09;4933579;29;20044;-65
2022/12/21 04:43:52;;;;;;;25.27;12.88;;;;;;;8.28;100.00;100944.25;4909093;29;20167;-67
2022/12/21 04:46:19;;;;;;;31.45;13.55;;;;;;;8.28;100.00;100964.38;4914149;29;20997;-67
2022/12/21 04:48:48;;;;;;;30.10;14.02;;;;;;;8.30;100.00;100967.84;4914734;29;20157;-68
2022/12/21 04:51:22;;;;;;;24.50;12.10;;;;;;;8.31;100.00;100959.06;4928132;29;20045;-67
2022/12/21 04:53:52;;;;;;;26.80;13.25;;;;;;;8.34;100.00;100970.38;4897931;29;20092;-67
2022/12/21 04:56:19;;;;;;;23.90;11.20;;;;;;;8.35;100.00;100971.22;4920101;29;20053;-67
2022/12/21 04:58:47;;;;;;;27.55;11.95;;;;;;;8.35;100.00;100964.25;4925187;29;20048;-68
2022/12/21 05:01:19;;;;;;;29.73;11.77;;;;;;;8.38;100.00;100958.06;4914466;29;20421;-67
2022/12/21 05:03:48;;;;;;;24.42;11.30;;;;;;;8.38;100.00;100948.44;4925357;29;20050;-68
2022/12/21 05:06:18;;;;;;;25.88;12.25;;;;;;;8.39;100.00;100954.53;4923393;29;20092;-63
2022/12/21 05:08:45;;;;;;;29.27;13.07;;;;;;;8.38;100.00;100961.56;4918518;29;20056;-64
2022/12/21 05:11:23;;;;;;;28.75;13.50;;;;;;;8.40;100.00;100953.63;4921663;29;20068;-63
2022/12/21 05:13:50;;;;;;;29.13;13.63;;;;;;;8.38;100.00;100953.69;4920053;29;20052;-66
2022/12/21 05:16:21;;;;;;;29.98;12.57;;;;;;;8.38;100.00;100955.41;4913809;29;20089;-67
2022/12/21 05:18:52;;;;;;;26.65;12.35;;;;;;;8.38;100.00;100948.44;4931175;29;20050;-67
2022/12/21 05:21:19;;;;;;;24.65;11.32;;;;;;;8.39;100.00;100955.38;4930770;28;20138;-65
2022/12/21 05:23:47;;;;;;;23.70;11.50;;;;;;;8.40;100.00;100949.22;4919034;29;20056;-66
2022/12/21 05:26:14;;;;;;;23.15;11.18;;;;;;;8.41;100.00;100942.25;4929527;29;20108;-66
2022/12/21 05:28:44;;;;;;;24.45;11.05;;;;;;;8.40;100.00;100928.22;4933946;29;20048;-67
2022/12/21 05:31:14;;;;;;;26.10;11.88;;;;;;;8.41;100.00;100936.97;4936743;28;20050;-66
2022/12/21 05:33:41;;;;;;;25.27;12.50;;;;;;;8.37;100.00;100935.31;4942985;28;20564;-67
2022/12/21 05:36:15;;;;;;;29.90;12.13;;;;;;;8.37;100.00;100937.94;4938406;28;20418;-67
2022/12/21 05:38:44;;;;;;;28.50;12.98;;;;;;;8.33;100.00;100939.75;4935672;28;20075;-64
2022/12/21 05:41:13;;;;;;;24.13;11.23;;;;;;;8.33;100.00;100938.91;4932675;28;20048;-66
2022/12/21 05:43:41;;;;;;;29.58;13.50;;;;;;;8.31;100.00;100941.53;4915620;29;20055;-66
2022/12/21 05:46:11;;;;;;;28.08;13.15;;;;;;;8.30;100.00;100936.31;4935507;29;20107;-66
2022/12/21 05:48:42;;;;;;;33.50;14.48;;;;;;;8.28;100.00;100941.63;4934513;28;20099;-66
2022/12/21 05:51:13;;;;;;;31.25;14.30;;;;;;;8.28;100.00;100943.34;4942107;28;20510;-66
2022/12/21 05:53:44;;;;;;;29.33;13.02;;;;;;;8.28;100.00;100946.00;4939024;28;20047;-66
2022/12/21 05:56:12;;;;;;;30.15;13.48;;;;;;;8.34;100.00;100952.00;4920892;29;20046;-67
2022/12/21 05:58:39;;;;;;;29.83;13.40;;;;;;;8.44;100.00;100946.56;4935845;28;20048;-67
2022/12/21 06:01:09;;;;;;;30.45;13.32;;;;;;;8.48;100.00;100940.38;4940231;28;20048;-67
2022/12/21 06:03:38;;;;;;;29.15;13.65;;;;;;;8.52;100.00;100939.41;4941277;28;20048;-67
2022/12/21 06:06:12;;;;;;;33.00;13.50;;;;;;;8.52;100.00;100929.78;4941462;28;20127;-67
2022/12/21 06:08:40;;;;;;;31.15;13.63;;;;;;;8.48;100.00;100916.75;4936169;28;20118;-66
2022/12/21 06:11:19;;;;;;;33.08;13.38;;;;;;;8.44;100.00;100920.28;4938949;28;20164;-67
2022/12/21 06:13:47;;;;;;;26.98;12.77;;;;;;;8.38;100.00;100913.38;4939919;28;20131;-67
2022/12/21 06:16:18;;;;;;;30.23;11.85;;;;;;;8.36;100.00;100913.44;4924900;28;20063;-66
2022/12/21 06:18:47;;;;;;;31.58;12.68;;;;;;;8.33;100.00;100918.75;4939656;28;20216;-66
2022/12/21 06:21:17;;;;;;;31.50;12.82;;;;;;;8.31;100.00;100920.53;4939812;28;20513;-65
2022/12/21 06:23:45;;;;;;;32.90;13.85;;;;;;;8.28;100.00;100923.22;4942543;28;20103;-65
2022/12/21 06:26:17;;;;;;;35.22;14.27;;;;;;;8.25;100.00;100920.66;4951523;28;20039;-65
2022/12/21 06:28:50;;;;;;;34.33;15.10;;;;;;;8.23;100.00;100919.81;4946768;28;20048;-65
2022/12/21 06:31:26;;;;;;;26.88;12.90;;;;;;;8.17;100.00;100914.69;4930686;28;20470;-65
2022/12/21 06:33:55;;;;;;;31.17;13.63;;;;;;;8.12;100.00;100919.16;4938225;28;20045;-65
2022/12/21 06:36:22;;;;;;;30.95;13.95;;;;;;;8.09;100.00;100922.69;4927936;28;20043;-65
2022/12/21 06:38:49;;;;;;;30.95;14.55;;;;;;;8.06;100.00;100915.75;4942895;28;20100;-66
2022/12/21 06:41:19;;;;;;;31.90;14.20;;;;;;;8.04;100.00;100921.91;4945786;28;20044;-65
2022/12/21 06:43:46;;;;;;;30.85;13.77;;;;;;;8.01;100.00;100921.97;4937168;28;20055;-65
2022/12/21 06:46:16;;;;;;;29.80;13.43;;;;;;;7.98;100.00;100925.53;4933810;28;20059;-66
2022/12/21 06:48:44;;;;;;;30.98;13.55;;;;;;;7.94;100.00;100929.09;4944529;28;20043;-66
2022/12/21 06:51:21;;;;;;;29.92;12.73;;;;;;;7.92;100.00;100923.00;4945607;28;20040;-66
2022/12/21 06:53:51;;;;;;;31.33;12.52;;;;;;;7.88;100.00;100921.34;4933748;28;20067;-66
2022/12/21 06:56:24;;;;;;;26.33;12.05;;;;;;;7.84;100.00;100931.00;4920307;29;20044;-66
2022/12/21 06:58:54;;;;;;;27.85;12.13;;;;;;;7.85;100.00;100939.75;4935148;28;20051;-66
2022/12/21 07:01:25;;;;;;;31.85;11.82;;;;;;;7.83;100.00;100938.91;4935542;28;20040;-69
2022/12/21 07:03:54;;;;;;;33.85;12.65;;;;;;;7.81;100.00;100938.97;4935223;29;20044;-65
2022/12/21 07:06:24;;;;;;;32.35;12.68;;;;;;;7.80;100.00;100926.72;4937083;28;20071;-65
2022/12/21 07:08:52;;;;;;;32.17;13.10;;;;;;;7.78;100.00;100931.97;4935471;29;20052;-65
2022/12/21 07:11:25;;;;;;;32.20;13.38;;;;;;;7.79;100.00;100940.75;4928283;28;20043;-65
2022/12/21 07:13:53;;;;;;;35.72;13.38;;;;;;;7.79;100.00;100938.13;4935111;29;20494;-65
2022/12/21 07:16:21;;;;;;;29.42;12.52;;;;;;;7.76;100.00;100946.91;4933997;29;20048;-66
2022/12/21 07:18:51;;;;;;;28.65;12.68;;;;;;;7.76;100.00;100944.28;4934927;29;20044;-65
2022/12/21 07:21:20;;;;;;;27.38;12.52;;;;;;;7.75;100.00;100945.19;4934598;29;20056;-65
2022/12/21 07:23:48;;;;;;;32.97;12.27;;;;;;;7.73;100.00;100948.72;4935044;29;20052;-66
2022/12/21 07:26:20;;;;;;;24.88;11.73;;;;;;;7.73;100.00;100951.34;4931930;29;20044;-66
2022/12/21 07:28:49;;;;;;;28.92;11.57;;;;;;;7.75;100.00;100958.31;4935067;29;20055;-66
2022/12/21 07:31:23;;;;;;;32.03;11.23;;;;;;;7.77;100.00;100959.16;4934820;29;20188;-66
2022/12/21 07:33:51;;;;;;;30.52;11.18;;;;;;;7.78;100.00;100962.63;4933671;29;20052;-66
2022/12/21 07:36:18;;;;;;;28.83;11.32;;;;;;;7.80;100.00;100970.47;4934526;28;20050;-66
2022/12/21 07:38:46;;;;;;;27.70;11.98;;;;;;;7.79;100.00;100961.72;4953808;28;20155;-66
2022/12/21 07:41:16;;;;;;;28.08;11.60;;;;;;;7.79;100.00;100966.97;4953744;28;20047;-67
2022/12/21 07:43:44;;;;;;;31.75;12.10;;;;;;;7.78;100.00;100966.09;4953895;28;20059;-66
2022/12/21 07:46:29;;;;;;;26.35;12.05;;;;;;;7.79;100.00;100966.97;4953986;28;20055;-66
2022/12/21 07:48:58;;;;;;;23.85;11.93;;;;;;;7.79;100.00;100961.72;4927262;29;20481;-66
2022/12/21 07:51:25;;;;;;;30.08;15.27;;;;;;;7.77;100.00;100948.66;4933374;28;20048;-67
2022/12/21 07:53:53;;;;;;;26.02;12.73;;;;;;;7.76;100.00;100959.16;4934465;29;20055;-67
2022/12/21 07:56:20;;;;;;;26.45;12.73;;;;;;;7.75;100.00;100966.16;4934354;29;20040;-67
2022/12/21 07:58:47;;;;;;;30.45;13.77;;;;;;;7.75;100.00;100965.28;4933658;29;20033;-67
2022/12/21 08:01:18;;;;;;;36.33;16.27;;;;;;;7.75;100.00;100963.56;4934302;29;20059;-67
2022/12/21 08:03:46;;;;;;;32.25;14.45;;;;;;;7.72;100.00;100974.09;4933372;29;20044;-67
2022/12/21 08:06:14;;;;;;;26.35;13.48;;;;;;;7.71;100.00;100982.00;4933891;28;20044;-67
2022/12/21 08:08:42;;;;;;;26.63;12.35;;;;;;;7.73;100.00;100990.72;4933644;29;20070;-66
2022/12/21 08:11:14;;;;;;;21.10;11.57;;;;;;;7.74;100.00;100987.16;4932811;29;20048;-67
2022/12/21 08:13:42;;;;;;;27.23;11.55;;;;;;;7.81;100.00;100987.94;4934198;29;20044;-67
2022/12/21 08:16:14;;;;;;;25.25;10.55;;;;;;;7.84;100.00;100990.53;4933543;29;20052;-67
2022/12/21 08:18:41;;;;;;;25.20;10.80;;;;;;;7.87;100.00;100993.97;4933813;29;20071;-67
2022/12/21 08:21:09;;;;;;;23.25;9.98;;;;;;;7.90;100.00;100999.16;4933119;28;20040;-66
2022/12/21 08:23:36;;;;;;;20.60;10.73;;;;;;;7.92;100.00;101005.28;4933598;29;20123;-67
2022/12/21 08:26:07;;;;;;;16.55;9.10;;;;;;;7.95;100.00;101011.34;4934051;29;20387;-67
2022/12/21 08:28:37;;;;;;;17.80;8.90;;;;;;;7.96;100.00;101013.97;4933566;29;20876;-67
2022/12/21 08:31:14;;;;;;;16.77;9.15;;;;;;;7.96;100.00;101007.81;4933534;29;20037;-67
2022/12/21 08:33:42;;;;;;;16.90;8.95;;;;;;;7.97;100.00;101009.56;4933645;29;20052;-67
2022/12/21 08:36:15;;;;;;;19.50;9.20;;;;;;;7.94;100.00;101002.59;4932911;28;20541;-67
2022/12/21 08:38:44;;;;;;;19.20;9.13;;;;;;;7.91;100.00;101000.91;4933627;29;20086;-67
2022/12/21 08:41:31;;;;;;;19.02;8.77;;;;;;;7.85;100.00;101002.75;4934053;29;20058;-67
2022/12/21 08:43:58;;;;;;;18.88;9.35;;;;;;;7.82;100.00;101002.81;4933429;29;20055;-66
2022/12/21 08:46:25;;;;;;;22.60;9.18;;;;;;;7.76;99.97;101004.66;4933446;29;20095;-67
2022/12/21 08:48:53;;;;;;;17.08;9.25;;;;;;;7.70;99.67;100996.84;4933812;29;20092;-67
2022/12/21 08:51:20;;;;;;;19.85;9.18;;;;;;;7.63;99.52;100997.00;4922558;29;20052;-67
2022/12/21 08:53:47;;;;;;;21.45;10.15;;;;;;;7.56;99.54;101001.47;4914749;29;20463;-66
2022/12/21 08:56:20;;;;;;;20.73;10.35;;;;;;;7.52;99.67;100999.78;4914155;29;20105;-66
2022/12/21 08:58:48;;;;;;;21.23;10.30;;;;;;;7.48;99.69;100998.94;4914470;29;20157;-66
2022/12/21 09:01:22;;;;;;;22.02;10.73;;;;;;;7.46;99.90;101003.34;4928002;29;20052;-67
2022/12/21 09:03:49;;;;;;;23.35;11.90;;;;;;;7.41;99.83;100992.94;4926471;28;20040;-67
2022/12/21 09:06:16;;;;;;;21.83;11.02;;;;;;;7.39;99.84;100989.44;4936509;29;20048;-67
2022/12/21 09:08:45;;;;;;;22.35;10.57;;;;;;;7.39;100.00;100993.84;4936988;29;20044;-67
2022/12/21 09:11:15;;;;;;;24.15;11.82;;;;;;;7.37;99.91;101006.09;4936436;29;20427;-67
2022/12/21 09:13:42;;;;;;;28.00;12.57;;;;;;;7.35;99.91;101006.13;4936188;29;20157;-67
2022/12/21 09:16:15;;;;;;;29.70;12.27;;;;;;;7.37;99.76;101008.72;4936242;29;20037;-67
2022/12/21 09:18:43;;;;;;;29.42;12.52;;;;;;;7.41;100.00;101002.56;4935037;28;20482;-67
2022/12/21 09:21:12;;;;;;;28.67;12.02;;;;;;;7.53;100.00;101007.59;4935926;29;20131;-67
2022/12/21 09:23:39;;;;;;;29.67;12.35;;;;;;;7.64;100.00;101007.47;4936324;29;20047;-67
2022/12/21 09:26:08;;;;;;;28.50;12.50;;;;;;;7.74;100.00;101016.94;4936711;29;20627;-67
2022/12/21 09:28:36;;;;;;;26.77;12.13;;;;;;;7.84;100.00;101015.00;4935743;29;20048;-67
2022/12/21 09:31:18;;;;;;;26.73;11.70;;;;;;;7.94;100.00;101020.97;4935652;29;20123;-67
2022/12/21 09:33:54;;;;;;;33.95;12.60;;;;;;;8.00;100.00;101009.50;4927685;28;20052;-67
2022/12/21 09:36:25;;;;;;;26.67;12.35;;;;;;;8.06;100.00;101007.66;4935973;29;20054;-67
2022/12/21 09:38:54;;;;;;;25.10;11.32;;;;;;;8.16;100.00;101005.72;4936438;29;20059;-67
2022/12/21 09:41:27;;;;;;;25.70;11.63;;;;;;;8.28;100.00;100995.91;4935436;29;20044;-67
2022/12/21 09:44:12;;;;;;;24.17;11.43;;;;;;;8.34;100.00;100991.41;4935892;29;20044;-68
2022/12/21 09:46:42;;;;;;;50.45;26.80;;;;;;;8.44;100.00;100999.09;4936167;29;20048;-68
2022/12/21 09:49:44;;;;;;;25.48;12.15;;;;;;;8.53;100.00;101005.09;4928548;29;20037;-68
2022/12/21 09:52:23;;;;;;;25.42;13.52;;;;;;;8.59;100.00;101003.22;4927953;29;20056;-68
2022/12/21 09:55:00;;;;;;;29.67;13.48;;;;;;;8.67;100.00;101014.44;4935318;29;20080;-67
2022/12/21 09:57:33;;;;;;;22.20;11.38;;;;;;;8.70;100.00;101012.63;4926411;29;20095;-68
2022/12/21 10:00:12;;;;;;;29.13;11.77;;;;;;;8.75;100.00;101011.69;4935875;29;20473;-67
2022/12/21 10:03:08;;;;;;;24.33;13.20;;;;;;;8.79;99.89;101006.34;4935241;29;20051;-67
2022/12/21 10:05:57;;;;;;;40.13;16.10;;;;;;;8.84;99.85;101003.59;4934753;29;20623;-67
2022/12/21 10:09:18;;;;;;;34.92;17.90;;;;;;;8.91;99.67;101004.34;4936386;29;20040;-67
2022/12/21 10:12:27;;;;;;;42.17;33.42;;;;;;;8.98;99.50;101006.84;4935540;29;20054;-67
2022/12/21 10:15:26;;;;;;;33.70;21.55;;;;;;;9.05;99.42;101011.94;4934747;29;20036;-67
2022/12/21 10:18:15;;;;;;;28.85;14.75;;;;;;;9.12;99.21;101006.53;4919516;29;20495;-67
2022/12/21 10:20:54;;;;;;;27.95;11.27;;;;;;;9.19;98.75;100994.13;4915729;29;20055;-67
2022/12/21 10:23:28;;;;;;;95.60;58.38;;;;;;;9.27;98.44;100989.53;4915888;29;20482;-67
2022/12/21 10:26:03;;;;;;;34.38;19.50;;;;;;;9.32;97.76;100987.66;4916353;29;20060;-67
2022/12/21 10:28:49;;;;;;;27.25;13.80;;;;;;;9.36;97.81;100987.59;4916463;29;20045;-67
2022/12/21 10:31:31;;;;;;;32.90;13.82;;;;;;;9.36;97.31;100977.06;4916409;29;20498;-68
2022/12/21 10:34:00;;;;;;;30.92;19.30;;;;;;;9.31;96.89;100985.94;4916860;29;20051;-68
2022/12/21 10:36:37;;;;;;;27.13;14.57;;;;;;;9.29;96.59;100985.13;4915246;29;20059;-67
2022/12/21 10:39:04;;;;;;;32.03;16.58;;;;;;;9.26;96.76;100993.06;4916558;29;20131;-67
2022/12/21 10:41:39;;;;;;;22.73;12.10;;;;;;;9.24;96.51;100997.50;4916118;29;20036;-67
2022/12/21 10:44:11;;;;;;;24.27;11.23;;;;;;;9.21;96.54;100994.06;4897573;29;20072;-67
2022/12/21 10:46:39;;;;;;;27.38;10.65;;;;;;;9.21;95.90;100996.69;4908712;29;20044;-67
2022/12/21 10:49:33;;;;;;;27.45;13.20;;;;;;;9.18;95.80;100992.38;4914859;29;20049;-67
2022/12/21 10:52:41;;;;;;;27.58;10.43;;;;;;;9.17;96.09;100996.75;4916363;29;20052;-67
2022/12/21 10:55:18;;;;;;;30.55;12.80;;;;;;;9.21;96.23;100989.66;4916356;29;20052;-67
2022/12/21 10:57:50;;;;;;;23.38;11.73;;;;;;;9.22;96.02;100990.53;4916230;29;20499;-67
2022/12/21 11:00:28;;;;;;;28.13;15.25;;;;;;;9.24;95.91;100991.38;4916438;29;20489;-67
2022/12/21 11:03:01;;;;;;;21.55;11.20;;;;;;;9.23;95.51;100982.59;4915987;29;20037;-66
2022/12/21 11:05:42;;;;;;;19.60;10.93;;;;;;;9.20;95.59;100987.06;4915155;29;20112;-67
2022/12/21 11:08:23;;;;;;;20.50;10.18;;;;;;;9.15;95.68;100977.53;4915958;29;20044;-66
2022/12/21 11:10:55;;;;;;;23.55;9.20;;;;;;;9.17;95.68;100983.59;4915666;29;20059;-67
2022/12/21 11:13:27;;;;;;;19.45;8.27;;;;;;;9.16;95.63;100976.63;4915701;29;20053;-67
2022/12/21 11:16:10;;;;;;;80.38;34.70;;;;;;;9.16;95.59;100976.63;4914226;29;20092;-67
2022/12/21 11:18:43;;;;;;;94.32;38.45;;;;;;;9.12;95.30;100974.97;4916217;29;20050;-67
2022/12/21 11:21:39;;;;;;;38.20;19.25;;;;;;;9.10;95.21;100974.13;4915582;29;20049;-68
2022/12/21 11:24:18;;;;;;;26.77;12.13;;;;;;;9.11;95.42;100974.97;4923285;29;20577;-68
2022/12/21 11:26:55;;;;;;;18.95;8.50;;;;;;;9.14;95.27;100974.94;4933716;28;20048;-67
2022/12/21 11:29:31;;;;;;;21.42;10.07;;;;;;;9.12;95.08;100974.09;4933792;29;20050;-68
2022/12/21 11:32:08;;;;;;;25.95;10.43;;;;;;;9.13;95.26;100971.44;4934633;29;20048;-68
2022/12/21 11:34:43;;;;;;;21.20;8.48;;;;;;;9.13;95.47;100974.06;4936012;28;20051;-67
2022/12/21 11:37:26;;;;;;;29.73;16.38;;;;;;;9.15;95.07;100974.03;4938872;28;20058;-68
2022/12/21 11:40:06;;;;;;;19.15;9.35;;;;;;;9.15;95.18;100967.03;4934914;29;20521;-67
2022/12/21 11:42:33;;;;;;;24.33;11.50;;;;;;;9.18;95.16;100976.59;4935120;29;20068;-67
2022/12/21 11:45:22;;;;;;;22.58;12.95;;;;;;;9.18;94.97;100979.22;4937636;28;20050;-67
2022/12/21 11:48:07;;;;;;;27.83;13.98;;;;;;;9.18;94.86;100971.34;4953335;28;20079;-67
2022/12/21 11:51:00;;;;;;;27.60;9.57;;;;;;;9.16;94.70;100967.88;4938525;28;20055;-67
2022/12/21 11:54:24;;;;;;;17.40;7.88;;;;;;;9.14;94.58;100967.03;4953680;28;20043;-67
2022/12/21 11:57:14;;;;;;;14.55;7.95;;;;;;;9.14;94.53;100964.41;4948960;28;20048;-68
2022/12/21 11:59:55;;;;;;;17.52;7.75;;;;;;;9.14;94.66;100959.16;4917860;29;20052;-68